createdAt,value
2023-04-09T00:01:19.474Z,96627.63
2023-04-09T00:03:46.772Z,96619.84
2023-04-09T00:06:14.255Z,96622.16
2023-04-09T00:08:41.545Z,96624.50
2023-04-09T00:11:08.992Z,96623.00
2023-04-09T00:13:39.518Z,96618.19
2023-04-09T00:16:08.717Z,96620.09
2023-04-09T00:18:36.554Z,96626.50
2023-04-09T00:21:03.822Z,96620.50
2023-04-09T00:23:31.037Z,96621.34
2023-04-09T00:25:58.872Z,96625.13
2023-04-09T00:28:26.409Z,96617.06
2023-04-09T00:30:53.713Z,96615.06
2023-04-09T00:33:21.106Z,96624.63
2023-04-09T00:35:48.458Z,96628.59
2023-04-09T00:38:15.891Z,96615.69
2023-04-09T00:40:43.230Z,96614.31
2023-04-09T00:43:10.843Z,96618.63
2023-04-09T00:45:38.581Z,96613.38
2023-04-09T00:48:06.342Z,96610.00
2023-04-09T00:50:33.779Z,96609.81
2023-04-09T00:53:01.580Z,96609.47
2023-04-09T00:55:29.668Z,96616.63
2023-04-09T00:57:56.953Z,96614.81
2023-04-09T01:00:24.270Z,96617.06
2023-04-09T01:02:54.608Z,96614.75
2023-04-09T01:05:22.093Z,96619.78
2023-04-09T01:08:08.883Z,96616.41
2023-04-09T01:10:54.521Z,96611.25
2023-04-09T01:13:46.770Z,96611.69
2023-04-09T01:16:17.437Z,96620.00
2023-04-09T01:18:57.026Z,96613.28
2023-04-09T01:21:29.039Z,96609.91
2023-04-09T01:24:25.383Z,96608.97
2023-04-09T01:26:57.846Z,96608.56
2023-04-09T01:29:37.750Z,96607.81
2023-04-09T01:32:07.348Z,96615.78
2023-04-09T01:34:36.598Z,96613.16
2023-04-09T01:37:04.818Z,96604.25
2023-04-09T01:39:33.218Z,96607.72
2023-04-09T01:42:04.206Z,96607.81
2023-04-09T01:44:33.510Z,96610.53
2023-04-09T01:47:01.917Z,96609.72
2023-04-09T01:49:30.090Z,96608.16
2023-04-09T01:51:58.099Z,96612.22
2023-04-09T01:54:25.621Z,96612.22
2023-04-09T01:56:53.132Z,96618.13
2023-04-09T01:59:20.789Z,96613.19
2023-04-09T02:01:53.934Z,96618.00
2023-04-09T02:04:32.513Z,96627.28
2023-04-09T02:07:29.729Z,96613.59
2023-04-09T02:09:59.931Z,96616.75
2023-04-09T02:12:30.919Z,96616.09
2023-04-09T02:15:01.845Z,96611.81
2023-04-09T02:17:29.397Z,96611.91
2023-04-09T02:19:56.837Z,96606.38
2023-04-09T02:22:24.260Z,96605.63
2023-04-09T02:24:51.743Z,96607.63
2023-04-09T02:27:19.174Z,96606.66
2023-04-09T02:29:46.658Z,96608.66
2023-04-09T02:32:14.041Z,96612.03
2023-04-09T02:34:41.549Z,96609.28
2023-04-09T02:37:09.055Z,96607.41
2023-04-09T02:39:36.296Z,96601.50
2023-04-09T02:42:03.966Z,96600.06
2023-04-09T02:44:31.150Z,96605.22
2023-04-09T02:46:58.582Z,96609.19
2023-04-09T02:49:25.950Z,96603.22
2023-04-09T02:51:53.324Z,96610.25
2023-04-09T02:54:20.596Z,96601.19
2023-04-09T02:56:47.869Z,96606.44
2023-04-09T02:59:15.144Z,96610.66
2023-04-09T03:01:42.722Z,96615.28
2023-04-09T03:04:10.172Z,96600.91
2023-04-09T03:06:37.656Z,96602.66
2023-04-09T03:09:04.961Z,96595.84
2023-04-09T03:11:32.283Z,96597.63
2023-04-09T03:13:59.533Z,96596.69
2023-04-09T03:16:26.935Z,96599.94
2023-04-09T03:18:54.524Z,96597.84
2023-04-09T03:21:21.989Z,96612.66
2023-04-09T03:23:51.001Z,96609.06
2023-04-09T03:26:18.307Z,96610.31
2023-04-09T03:28:48.806Z,96612.94
2023-04-09T03:31:17.391Z,96608.53
2023-04-09T03:33:46.436Z,96611.69
2023-04-09T03:36:14.356Z,96613.16
2023-04-09T03:39:13.803Z,96609.56
2023-04-09T03:41:46.637Z,96617.75
2023-04-09T03:44:17.264Z,96614.47
2023-04-09T03:47:04.813Z,96613.44
2023-04-09T03:49:32.122Z,96616.28
2023-04-09T03:52:08.017Z,96618.50
2023-04-09T03:54:39.017Z,96618.19
2023-04-09T03:57:13.029Z,96618.19
2023-04-09T03:59:42.991Z,96623.53
2023-04-09T04:02:11.731Z,96622.16
2023-04-09T04:04:44.648Z,96622.25
2023-04-09T04:07:12.198Z,96615.31
2023-04-09T04:09:59.668Z,96615.75
2023-04-09T04:12:27.270Z,96619.59
2023-04-09T04:15:14.984Z,96618.84
2023-04-09T04:17:47.180Z,96619.34
2023-04-09T04:20:23.868Z,96619.00
2023-04-09T04:23:00.413Z,96614.06
2023-04-09T04:25:28.061Z,96627.00
2023-04-09T04:27:56.672Z,96626.78
2023-04-09T04:30:30.827Z,96626.16
2023-04-09T04:33:07.795Z,96619.22
2023-04-09T04:35:47.227Z,96624.91
2023-04-09T04:38:31.451Z,96622.09
2023-04-09T04:41:02.361Z,96624.91
2023-04-09T04:43:31.050Z,96626.94
2023-04-09T04:46:00.349Z,96623.94
2023-04-09T04:48:31.301Z,96620.59
2023-04-09T04:51:01.197Z,96630.19
2023-04-09T04:53:36.403Z,96618.09
2023-04-09T04:56:16.432Z,96626.19
2023-04-09T04:59:01.156Z,96628.28
2023-04-09T05:01:34.144Z,96632.41
2023-04-09T05:04:04.588Z,96637.00
2023-04-09T05:06:37.266Z,96634.69
2023-04-09T05:09:09.049Z,96642.50
2023-04-09T05:11:47.316Z,96649.94
2023-04-09T05:14:21.858Z,96648.16
2023-04-09T05:16:49.569Z,96655.78
2023-04-09T05:19:19.720Z,96653.66
2023-04-09T05:21:47.652Z,96655.16
2023-04-09T05:24:21.358Z,96662.31
2023-04-09T05:26:48.639Z,96654.16
2023-04-09T05:29:17.870Z,96658.34
2023-04-09T05:31:45.166Z,96663.38
2023-04-09T05:34:22.470Z,96656.78
2023-04-09T05:36:54.164Z,96655.16
2023-04-09T05:39:23.241Z,96653.34
2023-04-09T05:41:52.762Z,96658.75
2023-04-09T05:44:26.195Z,96648.44
2023-04-09T05:47:00.899Z,96652.59
2023-04-09T05:49:34.755Z,96650.78
2023-04-09T05:52:07.527Z,96645.22
2023-04-09T05:54:35.776Z,96637.59
2023-04-09T05:57:04.952Z,96636.78
2023-04-09T05:59:35.891Z,96629.34
2023-04-09T06:02:03.371Z,96637.44
2023-04-09T06:04:30.664Z,96640.34
2023-04-09T06:07:00.627Z,96645.50
2023-04-09T06:09:30.662Z,96642.03
2023-04-09T06:11:58.063Z,96651.34
2023-04-09T06:14:25.342Z,96649.78
2023-04-09T06:16:52.624Z,96641.78
2023-04-09T06:19:19.972Z,96646.81
2023-04-09T06:21:47.262Z,96652.38
2023-04-09T06:24:14.497Z,96644.81
2023-04-09T06:26:41.882Z,96654.00
2023-04-09T06:29:09.203Z,96656.72
2023-04-09T06:31:36.521Z,96652.94
2023-04-09T06:34:03.850Z,96650.38
2023-04-09T06:36:31.082Z,96656.63
2023-04-09T06:38:59.683Z,96645.06
2023-04-09T06:41:27.018Z,96651.50
2023-04-09T06:43:55.159Z,96647.97
2023-04-09T06:46:22.757Z,96650.22
2023-04-09T06:48:50.456Z,96647.78
2023-04-09T06:51:17.762Z,96645.69
2023-04-09T06:53:45.193Z,96648.34
2023-04-09T06:56:12.411Z,96643.97
2023-04-09T06:58:39.758Z,96643.78
2023-04-09T07:01:06.957Z,96648.84
2023-04-09T07:03:34.423Z,96648.66
2023-04-09T07:06:01.780Z,96656.72
2023-04-09T07:08:29.123Z,96654.50
2023-04-09T07:10:56.602Z,96650.28
2023-04-09T07:13:23.871Z,96648.16
2023-04-09T07:15:51.318Z,96647.94
2023-04-09T07:18:18.692Z,96648.44
2023-04-09T07:20:46.229Z,96651.44
2023-04-09T07:23:13.521Z,96649.72
2023-04-09T07:25:41.052Z,96646.50
2023-04-09T07:28:08.368Z,96643.03
2023-04-09T07:30:35.859Z,96651.28
2023-04-09T07:33:03.165Z,96648.88
2023-04-09T07:35:30.679Z,96647.16
2023-04-09T07:37:59.378Z,96649.84
2023-04-09T07:40:26.880Z,96642.69
2023-04-09T07:42:54.670Z,96652.00
2023-04-09T07:45:21.949Z,96639.56
2023-04-09T07:47:49.281Z,96650.94
2023-04-09T07:50:16.625Z,96642.50
2023-04-09T07:52:43.878Z,96637.78
2023-04-09T07:55:11.164Z,96635.69
2023-04-09T07:57:38.897Z,96641.72
2023-04-09T08:00:07.152Z,96651.16
2023-04-09T08:02:44.604Z,96638.22
2023-04-09T08:05:12.258Z,96647.28
2023-04-09T08:07:39.997Z,96649.03
2023-04-09T08:10:07.959Z,96645.50
2023-04-09T08:12:35.218Z,96652.00
2023-04-09T08:15:04.242Z,96660.06
2023-04-09T08:17:31.593Z,96653.44
2023-04-09T08:19:58.873Z,96658.25
2023-04-09T08:22:26.226Z,96656.63
2023-04-09T08:24:53.981Z,96662.88
2023-04-09T08:27:22.518Z,96664.06
2023-04-09T08:29:49.864Z,96662.50
2023-04-09T08:32:17.217Z,96666.47
2023-04-09T08:34:44.656Z,96672.94
2023-04-09T08:37:11.915Z,96670.56
2023-04-09T08:39:39.233Z,96666.91
2023-04-09T08:42:07.572Z,96667.03
2023-04-09T08:44:34.879Z,96673.16
2023-04-09T08:47:03.013Z,96672.44
2023-04-09T08:49:30.383Z,96677.72
2023-04-09T08:51:57.693Z,96678.31
2023-04-09T08:54:27.291Z,96679.59
2023-04-09T08:56:54.611Z,96675.28
2023-04-09T08:59:22.043Z,96675.97
2023-04-09T09:01:54.717Z,96677.78
2023-04-09T09:04:22.332Z,96672.78
2023-04-09T09:06:49.657Z,96672.41
2023-04-09T09:09:19.391Z,96671.75
2023-04-09T09:11:48.968Z,96664.50
2023-04-09T09:14:18.506Z,96662.47
2023-04-09T09:17:04.994Z,96672.34
2023-04-09T09:19:37.751Z,96669.94
2023-04-09T09:22:06.394Z,96678.47
2023-04-09T09:24:34.793Z,96669.91
2023-04-09T09:27:03.027Z,96675.44
2023-04-09T09:29:30.469Z,96672.75
2023-04-09T09:31:57.756Z,96674.47
2023-04-09T09:34:26.373Z,96674.97
2023-04-09T09:36:53.710Z,96665.28
2023-04-09T09:39:22.776Z,96666.09
2023-04-09T09:42:08.458Z,96678.69
2023-04-09T09:44:35.708Z,96669.25
2023-04-09T09:47:05.032Z,96675.28
2023-04-09T09:49:32.372Z,96680.31
2023-04-09T09:52:03.335Z,96687.00
2023-04-09T09:54:42.684Z,96683.00
2023-04-09T09:57:15.825Z,96684.72
2023-04-09T09:59:52.723Z,96686.16
2023-04-09T10:02:22.305Z,96682.28
2023-04-09T10:04:54.030Z,96688.38
2023-04-09T10:07:22.746Z,96680.09
2023-04-09T10:09:52.398Z,96689.41
2023-04-09T10:12:24.308Z,96680.06
2023-04-09T10:14:56.402Z,96673.22
2023-04-09T10:17:23.698Z,96677.78
2023-04-09T10:20:12.062Z,96682.25
2023-04-09T10:22:39.680Z,96666.25
2023-04-09T10:25:08.543Z,96675.50
2023-04-09T10:27:37.132Z,96677.41
2023-04-09T10:30:07.780Z,96675.09
2023-04-09T10:32:37.208Z,96681.25
2023-04-09T10:35:04.861Z,96680.75
2023-04-09T10:37:32.226Z,96687.72
2023-04-09T10:39:59.668Z,96690.97
2023-04-09T10:42:33.153Z,96695.81
2023-04-09T10:47:51.957Z,96693.44
2023-04-09T10:50:26.129Z,96689.16
2023-04-09T10:52:57.843Z,96691.97
2023-04-09T10:55:40.299Z,96687.31
2023-04-09T10:58:12.332Z,96689.22
2023-04-09T11:00:49.928Z,96687.25
2023-04-09T11:03:30.913Z,96688.28
2023-04-09T11:06:06.440Z,96685.38
2023-04-09T11:08:34.315Z,96684.41
2023-04-09T11:11:02.691Z,96676.91
2023-04-09T11:13:32.097Z,96676.84
2023-04-09T11:16:01.607Z,96680.03
2023-04-09T11:18:31.080Z,96675.06
2023-04-09T11:21:00.362Z,96673.31
2023-04-09T11:23:28.241Z,96673.31
2023-04-09T11:25:56.457Z,96677.41
2023-04-09T11:28:24.458Z,96678.25
2023-04-09T11:30:52.515Z,96668.69
2023-04-09T11:33:20.851Z,96668.63
2023-04-09T11:35:48.961Z,96667.88
2023-04-09T11:38:16.732Z,96671.84
2023-04-09T11:40:49.072Z,96673.63
2023-04-09T11:43:18.153Z,96673.84
2023-04-09T11:45:48.888Z,96680.03
2023-04-09T11:48:22.199Z,96679.50
2023-04-09T11:50:50.205Z,96673.41
2023-04-09T11:53:19.028Z,96682.41
2023-04-09T11:55:49.961Z,96680.41
2023-04-09T11:58:17.744Z,96680.72
2023-04-09T12:00:45.819Z,96679.91
2023-04-09T12:03:13.238Z,96682.47
2023-04-09T12:05:50.819Z,96671.91
2023-04-09T12:08:24.819Z,96681.69
2023-04-09T12:10:54.073Z,96676.69
2023-04-09T12:13:21.966Z,96681.16
2023-04-09T12:15:50.054Z,96671.06
2023-04-09T12:18:17.422Z,96668.00
2023-04-09T12:20:47.806Z,96670.16
2023-04-09T12:23:16.274Z,96672.66
2023-04-09T12:25:45.659Z,96673.25
2023-04-09T12:28:18.864Z,96672.91
2023-04-09T12:30:46.750Z,96675.38
2023-04-09T12:33:14.175Z,96673.19
2023-04-09T12:35:41.543Z,96668.16
2023-04-09T12:38:08.945Z,96665.09
2023-04-09T12:40:37.381Z,96676.06
2023-04-09T12:43:04.810Z,96676.63
2023-04-09T12:45:32.492Z,96671.72
2023-04-09T12:47:59.731Z,96673.41
2023-04-09T12:50:27.180Z,96667.44
2023-04-09T12:52:54.390Z,96656.75
2023-04-09T12:55:22.622Z,96666.06
2023-04-09T12:57:51.600Z,96672.44
2023-04-09T13:00:18.968Z,96664.31
2023-04-09T13:02:46.747Z,96660.13
2023-04-09T13:05:14.182Z,96668.94
2023-04-09T13:07:43.105Z,96667.34
2023-04-09T13:10:11.184Z,96667.94
2023-04-09T13:12:38.616Z,96667.63
2023-04-09T13:15:07.008Z,96670.88
2023-04-09T13:17:34.542Z,96667.56
2023-04-09T13:20:02.311Z,96661.25
2023-04-09T13:22:29.632Z,96672.53
2023-04-09T13:24:56.960Z,96669.84
2023-04-09T13:27:24.244Z,96668.34
2023-04-09T13:29:51.596Z,96667.38
2023-04-09T13:32:21.718Z,96657.06
2023-04-09T13:34:49.740Z,96664.31
2023-04-09T13:37:17.237Z,96652.59
2023-04-09T13:39:45.132Z,96655.41
2023-04-09T13:42:14.185Z,96650.94
2023-04-09T13:44:45.204Z,96646.34
2023-04-09T13:47:13.622Z,96638.91
2023-04-09T13:49:41.669Z,96641.16
2023-04-09T13:52:09.500Z,96651.34
2023-04-09T13:54:37.348Z,96648.69
2023-04-09T13:57:04.618Z,96644.94
2023-04-09T13:59:31.906Z,96642.41
2023-04-09T14:01:59.290Z,96647.31
2023-04-09T14:04:27.093Z,96641.00
2023-04-09T14:06:54.419Z,96634.56
2023-04-09T14:09:21.669Z,96646.00
2023-04-09T14:11:49.858Z,96644.06
2023-04-09T14:14:18.099Z,96644.06
2023-04-09T14:16:45.330Z,96641.28
2023-04-09T14:19:12.593Z,96638.94
2023-04-09T14:21:40.737Z,96632.81
2023-04-09T14:24:08.134Z,96631.97
2023-04-09T14:26:35.510Z,96632.53
2023-04-09T14:29:02.833Z,96643.53
2023-04-09T14:31:30.289Z,96629.59
2023-04-09T14:33:57.600Z,96638.81
2023-04-09T14:36:25.215Z,96636.91
2023-04-09T14:38:53.445Z,96634.94
2023-04-09T14:41:22.799Z,96634.19
2023-04-09T14:43:50.095Z,96630.44
2023-04-09T14:46:17.470Z,96635.19
2023-04-09T14:48:44.751Z,96627.34
2023-04-09T14:51:12.500Z,96626.81
2023-04-09T14:53:39.801Z,96644.38
2023-04-09T14:56:07.247Z,96623.06
2023-04-09T14:58:34.515Z,96629.47
2023-04-09T15:01:01.960Z,96623.16
2023-04-09T15:03:29.577Z,96624.81
2023-04-09T15:05:57.180Z,96618.38
2023-04-09T15:08:24.441Z,96621.06
2023-04-09T15:10:51.875Z,96620.16
2023-04-09T15:13:19.109Z,96612.53
2023-04-09T15:15:46.763Z,96616.41
2023-04-09T15:18:13.963Z,96622.84
2023-04-09T15:20:43.872Z,96617.28
2023-04-09T15:23:11.705Z,96618.94
2023-04-09T15:25:39.687Z,96615.44
2023-04-09T15:28:07.300Z,96622.97
2023-04-09T15:30:36.268Z,96623.25
2023-04-09T15:33:05.086Z,96630.78
2023-04-09T15:35:32.370Z,96631.97
2023-04-09T15:37:59.609Z,96630.75
2023-04-09T15:40:27.006Z,96622.66
2023-04-09T15:42:54.207Z,96626.16
2023-04-09T15:45:21.465Z,96625.28
2023-04-09T15:47:48.838Z,96625.84
2023-04-09T15:50:16.540Z,96626.16
2023-04-09T15:52:43.912Z,96629.31
2023-04-09T15:55:11.600Z,96624.16
2023-04-09T15:57:38.948Z,96620.69
2023-04-09T16:00:11.162Z,96623.16
2023-04-09T16:02:39.361Z,96614.22
2023-04-09T16:05:07.571Z,96615.06
2023-04-09T16:07:34.858Z,96613.53
2023-04-09T16:10:02.708Z,96602.28
2023-04-09T16:12:30.052Z,96605.94
2023-04-09T16:14:57.353Z,96611.66
2023-04-09T16:17:24.765Z,96608.59
2023-04-09T16:19:51.964Z,96617.53
2023-04-09T16:22:19.403Z,96608.75
2023-04-09T16:24:46.653Z,96620.63
2023-04-09T16:27:14.920Z,96605.13
2023-04-09T16:29:42.239Z,96611.47
2023-04-09T16:32:09.622Z,96613.88
2023-04-09T16:34:36.908Z,96608.91
2023-04-09T16:37:04.210Z,96614.47
2023-04-09T16:39:31.956Z,96614.72
2023-04-09T16:41:59.313Z,96612.88
2023-04-09T16:44:26.622Z,96610.53
2023-04-09T16:46:53.987Z,96607.75
2023-04-09T16:49:21.351Z,96612.16
2023-04-09T16:51:48.591Z,96614.31
2023-04-09T16:54:15.910Z,96617.66
2023-04-09T16:56:43.240Z,96614.63
2023-04-09T16:59:12.616Z,96614.44
2023-04-09T17:01:40.063Z,96614.56
2023-04-09T17:04:07.536Z,96617.22
2023-04-09T17:06:34.835Z,96615.78
2023-04-09T17:09:04.049Z,96617.03
2023-04-09T17:11:32.983Z,96614.50
2023-04-09T17:14:00.391Z,96617.41
2023-04-09T17:16:28.169Z,96620.47
2023-04-09T17:18:55.433Z,96617.22
2023-04-09T17:21:22.998Z,96619.06
2023-04-09T17:23:50.218Z,96623.31
2023-04-09T17:26:17.541Z,96623.69
2023-04-09T17:28:44.909Z,96627.59
2023-04-09T17:31:14.189Z,96628.19
2023-04-09T17:33:42.666Z,96624.84
2023-04-09T17:36:09.986Z,96629.56
2023-04-09T17:38:37.370Z,96635.34
2023-04-09T17:41:06.383Z,96631.28
2023-04-09T17:43:35.019Z,96639.16
2023-04-09T17:46:03.197Z,96645.50
2023-04-09T17:48:32.036Z,96643.16
2023-04-09T17:50:59.602Z,96642.88
2023-04-09T17:53:27.412Z,96646.34
2023-04-09T17:55:54.726Z,96641.19
2023-04-09T17:58:22.059Z,96637.03
2023-04-09T18:00:49.371Z,96634.19
2023-04-09T18:03:16.893Z,96638.28
2023-04-09T18:05:44.748Z,96633.22
2023-04-09T18:08:12.762Z,96641.66
2023-04-09T18:10:40.061Z,96639.97
2023-04-09T18:13:10.274Z,96638.53
2023-04-09T18:15:37.715Z,96645.16
2023-04-09T18:18:05.102Z,96641.94
2023-04-09T18:20:32.521Z,96650.81
2023-04-09T18:22:59.753Z,96655.41
2023-04-09T18:25:29.052Z,96663.56
2023-04-09T18:27:56.616Z,96667.28
2023-04-09T18:30:24.075Z,96664.91
2023-04-09T18:32:52.100Z,96669.69
2023-04-09T18:35:19.529Z,96669.97
2023-04-09T18:37:46.877Z,96672.72
2023-04-09T18:40:18.381Z,96674.75
2023-04-09T18:42:45.707Z,96680.97
2023-04-09T18:45:12.992Z,96677.66
2023-04-09T18:47:41.115Z,96682.22
2023-04-09T18:50:08.669Z,96683.53
2023-04-09T18:52:39.106Z,96685.94
2023-04-09T18:55:06.957Z,96688.47
2023-04-09T18:57:34.228Z,96696.00
2023-04-09T19:00:03.658Z,96696.16
2023-04-09T19:02:31.337Z,96694.56
2023-04-09T19:04:59.560Z,96700.56
2023-04-09T19:07:26.964Z,96699.84
2023-04-09T19:09:54.260Z,96697.66
2023-04-09T19:12:21.740Z,96698.94
2023-04-09T19:14:48.988Z,96694.59
2023-04-09T19:17:16.769Z,96700.22
2023-04-09T19:19:43.993Z,96700.78
2023-04-09T19:22:11.174Z,96699.53
2023-04-09T19:24:38.367Z,96704.31
2023-04-09T19:27:10.164Z,96702.16
2023-04-09T19:29:37.504Z,96700.78
2023-04-09T19:32:05.375Z,96700.31
2023-04-09T19:34:32.755Z,96698.63
2023-04-09T19:37:00.066Z,96696.94
2023-04-09T19:39:27.554Z,96705.69
2023-04-09T19:41:54.765Z,96701.25
2023-04-09T19:44:22.269Z,96695.88
2023-04-09T19:46:49.616Z,96704.00
2023-04-09T19:49:17.055Z,96704.25
2023-04-09T19:51:44.293Z,96705.66
2023-04-09T19:54:11.659Z,96705.13
2023-04-09T19:56:38.934Z,96707.03
2023-04-09T19:59:06.466Z,96704.63
2023-04-09T20:01:34.318Z,96708.09
2023-04-09T20:04:01.813Z,96709.91
2023-04-09T20:06:29.392Z,96704.53
2023-04-09T20:08:56.743Z,96713.03
2023-04-09T20:11:23.992Z,96703.44
2023-04-09T20:13:52.489Z,96710.63
2023-04-09T20:16:19.949Z,96710.09
2023-04-09T20:18:47.741Z,96705.28
2023-04-09T20:21:15.950Z,96703.22
2023-04-09T20:23:45.563Z,96697.00
2023-04-09T20:26:14.019Z,96696.09
2023-04-09T20:28:42.020Z,96693.59
2023-04-09T20:31:09.313Z,96688.97
2023-04-09T20:33:36.570Z,96703.84
2023-04-09T20:36:03.995Z,96700.38
2023-04-09T20:38:31.348Z,96708.38
2023-04-09T20:40:58.591Z,96694.59
2023-04-09T20:43:25.810Z,96710.47
2023-04-09T20:45:53.369Z,96710.56
2023-04-09T20:48:20.811Z,96699.22
2023-04-09T20:50:48.089Z,96703.63
2023-04-09T20:53:15.676Z,96699.44
2023-04-09T20:55:42.964Z,96708.28
2023-04-09T20:58:10.229Z,96701.22
2023-04-09T21:00:37.428Z,96703.22
2023-04-09T21:03:04.886Z,96702.47
2023-04-09T21:05:32.988Z,96700.91
2023-04-09T21:08:00.287Z,96700.06
2023-04-09T21:10:27.729Z,96704.47
2023-04-09T21:12:55.033Z,96709.63
2023-04-09T21:15:22.337Z,96713.41
2023-04-09T21:17:49.638Z,96709.09
2023-04-09T21:20:17.004Z,96716.38
2023-04-09T21:22:44.286Z,96715.72
2023-04-09T21:25:13.308Z,96706.47
2023-04-09T21:27:42.033Z,96716.34
2023-04-09T21:30:09.659Z,96719.06
2023-04-09T21:32:37.467Z,96720.13
2023-04-09T21:35:05.511Z,96718.63
2023-04-09T21:37:34.257Z,96710.13
2023-04-09T21:40:01.583Z,96717.19
2023-04-09T21:42:32.057Z,96716.44
2023-04-09T21:44:59.398Z,96720.94
2023-04-09T21:47:28.153Z,96722.81
2023-04-09T21:49:56.018Z,96716.94
2023-04-09T21:52:24.971Z,96714.41
2023-04-09T21:54:52.339Z,96716.28
2023-04-09T21:57:19.661Z,96715.44
2023-04-09T21:59:46.871Z,96716.69
2023-04-09T22:02:14.462Z,96719.53
2023-04-09T22:04:44.569Z,96717.97
2023-04-09T22:07:12.179Z,96729.50
2023-04-09T22:09:39.418Z,96732.31
2023-04-09T22:12:06.834Z,96732.53
2023-04-09T22:14:34.047Z,96731.03
2023-04-09T22:17:03.234Z,96738.28
2023-04-09T22:19:32.214Z,96732.28
2023-04-09T22:21:59.510Z,96746.63
2023-04-09T22:24:30.806Z,96744.41
2023-04-09T22:27:01.853Z,96745.66
2023-04-09T22:29:29.796Z,96752.00
2023-04-09T22:31:57.061Z,96747.69
2023-04-09T22:34:24.611Z,96744.25
2023-04-09T22:36:51.936Z,96735.19
2023-04-09T22:39:19.147Z,96734.53
2023-04-09T22:41:46.423Z,96733.25
2023-04-09T22:44:13.745Z,96723.78
2023-04-09T22:46:41.454Z,96724.44
2023-04-09T22:49:09.329Z,96734.94
2023-04-09T22:51:36.660Z,96732.59
2023-04-09T22:54:04.052Z,96725.31
2023-04-09T22:56:32.457Z,96722.88
2023-04-09T22:58:59.929Z,96723.91
2023-04-09T23:01:27.592Z,96731.97
2023-04-09T23:03:55.954Z,96727.56
2023-04-09T23:06:24.802Z,96719.59
2023-04-09T23:08:52.253Z,96715.28
2023-04-09T23:11:19.649Z,96714.56
2023-04-09T23:13:47.018Z,96715.50
2023-04-09T23:16:14.439Z,96717.38
2023-04-09T23:18:41.792Z,96715.59
2023-04-09T23:21:10.117Z,96726.09
2023-04-09T23:23:38.524Z,96723.56
2023-04-09T23:26:06.461Z,96715.88
2023-04-09T23:28:33.984Z,96718.88
2023-04-09T23:31:01.420Z,96715.72
2023-04-09T23:33:28.754Z,96718.25
2023-04-09T23:35:55.988Z,96713.09
2023-04-09T23:38:23.765Z,96713.72
2023-04-09T23:40:51.101Z,96713.72
2023-04-09T23:43:18.633Z,96717.00
2023-04-09T23:45:46.120Z,96716.94
2023-04-09T23:48:13.410Z,96716.09
2023-04-09T23:50:41.751Z,96706.63
2023-04-09T23:53:09.404Z,96706.91
2023-04-09T23:55:41.887Z,96710.47
2023-04-09T23:58:10.008Z,96709.72
